createdAt,value
2022-11-25T00:00:07.142Z,94.57
2022-11-25T00:05:30.465Z,97.17
2022-11-25T00:10:33.868Z,105.00
2022-11-25T00:15:37.268Z,79.97
2022-11-25T00:20:40.887Z,79.17
2022-11-25T00:25:44.305Z,93.53
2022-11-25T00:30:47.783Z,81.17
2022-11-25T00:35:51.088Z,93.57
2022-11-25T00:41:14.122Z,85.93
2022-11-25T00:46:17.620Z,92.67
2022-11-25T00:51:21.109Z,78.57
2022-11-25T00:56:24.240Z,82.60
2022-11-25T01:01:28.066Z,74.87
2022-11-25T01:06:31.236Z,83.67
2022-11-25T01:11:34.661Z,83.10
2022-11-25T01:16:37.871Z,74.33
2022-11-25T01:21:41.608Z,90.60
2022-11-25T01:26:46.093Z,76.87
2022-11-25T01:31:49.534Z,93.97
2022-11-25T01:36:53.268Z,80.90
2022-11-25T01:41:56.637Z,91.70
2022-11-25T01:47:21.436Z,76.83
2022-11-25T01:52:32.434Z,74.93
2022-11-25T01:57:41.263Z,80.67
2022-11-25T02:02:45.038Z,72.53
2022-11-25T02:07:51.815Z,89.47
2022-11-25T02:12:55.707Z,72.07
2022-11-25T02:17:59.398Z,84.80
2022-11-25T02:23:22.830Z,90.83
2022-11-25T02:28:30.394Z,76.87
2022-11-25T02:33:34.029Z,73.13
2022-11-25T02:38:57.251Z,69.80
2022-11-25T02:44:02.073Z,65.87
2022-11-25T02:49:10.129Z,73.70
2022-11-25T02:54:16.250Z,70.83
2022-11-25T02:59:19.918Z,78.67
2022-11-25T03:04:23.423Z,70.13
2022-11-25T03:09:27.118Z,76.77
2022-11-25T03:14:30.597Z,78.13
2022-11-25T03:19:34.049Z,80.27
2022-11-25T03:24:37.548Z,65.37
2022-11-25T03:29:41.150Z,70.87
2022-11-25T03:34:44.657Z,71.70
2022-11-25T03:39:48.258Z,72.17
2022-11-25T03:44:51.708Z,70.73
2022-11-25T03:49:54.816Z,65.50
2022-11-25T03:54:58.290Z,70.57
2022-11-25T04:00:02.601Z,71.00
2022-11-25T04:05:06.459Z,68.33
2022-11-25T04:10:10.952Z,58.73
2022-11-25T04:15:16.540Z,64.87
2022-11-25T04:20:20.249Z,61.93
2022-11-25T04:25:23.937Z,61.97
2022-11-25T04:30:27.467Z,72.13
2022-11-25T04:35:31.129Z,66.43
2022-11-25T04:40:34.558Z,63.33
2022-11-25T04:46:06.328Z,67.23
2022-11-25T04:51:01.189Z,66.47
2022-11-25T04:56:04.888Z,67.77
2022-11-25T05:01:08.724Z,74.00
2022-11-25T05:06:12.252Z,75.93
2022-11-25T05:11:15.759Z,74.43
2022-11-25T05:16:19.320Z,54.83
2022-11-25T05:21:22.569Z,63.23
2022-11-25T05:26:26.098Z,66.00
2022-11-25T05:31:29.521Z,68.33
2022-11-25T05:36:33.201Z,55.83
2022-11-25T05:41:36.750Z,59.93
2022-11-25T05:46:40.327Z,61.73
2022-11-25T05:51:43.910Z,71.97
2022-11-25T05:56:47.679Z,69.43
2022-11-25T06:01:54.494Z,64.97
2022-11-25T06:06:58.180Z,71.70
2022-11-25T06:12:01.518Z,75.30
2022-11-25T06:17:05.298Z,80.20
2022-11-25T06:22:08.419Z,72.37
2022-11-25T06:27:11.929Z,69.80
2022-11-25T06:32:15.640Z,73.47
2022-11-25T06:37:19.219Z,65.87
2022-11-25T06:42:22.440Z,84.73
2022-11-25T06:47:26.568Z,72.60
2022-11-25T06:52:32.709Z,77.53
2022-11-25T06:57:38.775Z,72.23
2022-11-25T07:02:48.030Z,63.37
2022-11-25T07:07:53.213Z,55.77
2022-11-25T07:12:56.803Z,56.97
2022-11-25T07:18:00.171Z,42.83
2022-11-25T07:23:03.760Z,43.43
2022-11-25T07:28:07.319Z,41.60
2022-11-25T07:33:10.946Z,47.63
2022-11-25T07:38:14.740Z,42.73
2022-11-25T07:43:18.750Z,41.60
2022-11-25T07:48:22.669Z,47.40
2022-11-25T07:53:26.219Z,41.20
2022-11-25T07:58:29.450Z,47.40
2022-11-25T08:03:34.740Z,46.43
2022-11-25T08:08:39.454Z,40.63
2022-11-25T08:13:44.199Z,43.93
2022-11-25T08:18:48.639Z,39.27
2022-11-25T08:23:53.260Z,47.47
2022-11-25T08:29:00.309Z,46.97
2022-11-25T08:34:04.672Z,45.87
2022-11-25T08:39:28.851Z,55.30
2022-11-25T08:44:32.831Z,55.60
2022-11-25T08:49:41.260Z,54.30
2022-11-25T08:54:45.669Z,53.77
2022-11-25T08:59:50.929Z,56.20
2022-11-25T09:04:54.411Z,51.63
2022-11-25T09:09:57.660Z,55.73
2022-11-25T09:15:01.333Z,52.13
2022-11-25T09:20:05.899Z,55.93
2022-11-25T09:25:09.993Z,53.47
2022-11-25T09:30:14.237Z,52.67
2022-11-25T09:35:31.257Z,51.53
2022-11-25T09:41:44.481Z,57.97
2022-11-25T09:47:20.970Z,62.73
2022-11-25T09:53:02.796Z,53.67
2022-11-25T09:58:25.034Z,54.80
2022-11-25T10:03:48.499Z,56.97
2022-11-25T10:09:14.562Z,52.57
2022-11-25T10:14:29.259Z,66.63
2022-11-25T10:20:03.989Z,62.30
2022-11-25T10:33:02.321Z,70.43
2022-11-25T10:38:49.192Z,68.60
2022-11-25T10:50:37.608Z,83.30
2022-11-25T12:04:26.060Z,70.23
2022-11-25T12:09:33.302Z,78.00
2022-11-25T12:14:44.660Z,80.63
2022-11-25T12:20:07.987Z,71.27
2022-11-25T12:25:14.747Z,78.17
2022-11-25T12:30:23.443Z,75.63
2022-11-25T12:35:52.035Z,71.50
2022-11-25T12:41:19.719Z,99.20
2022-11-25T12:46:45.444Z,86.70
2022-11-25T12:51:52.263Z,83.23
2022-11-25T13:03:48.622Z,74.27
2022-11-25T13:09:25.385Z,78.53
2022-11-25T13:15:07.387Z,92.13
2022-11-25T13:20:29.978Z,93.73
2022-11-25T13:25:34.846Z,72.23
2022-11-25T13:30:40.705Z,84.70
2022-11-25T13:35:44.884Z,65.60
2022-11-25T13:40:58.669Z,73.17
2022-11-25T13:46:02.941Z,84.27
2022-11-25T13:51:23.222Z,83.97
2022-11-25T13:56:32.097Z,61.83
2022-11-25T14:01:36.252Z,77.13
2022-11-25T14:06:42.832Z,73.63
2022-11-25T14:11:53.035Z,67.07
2022-11-25T14:17:05.429Z,68.97
2022-11-25T14:22:18.311Z,89.00
2022-11-25T14:27:27.301Z,97.20
2022-11-25T14:32:40.945Z,79.07
2022-11-25T14:38:09.163Z,78.17
2022-11-25T14:43:25.215Z,77.70
2022-11-25T14:48:28.930Z,67.47
2022-11-25T14:53:48.533Z,76.07
2022-11-25T14:58:54.424Z,91.00
2022-11-25T15:04:05.732Z,75.90
2022-11-25T15:09:32.602Z,69.13
2022-11-25T15:14:39.745Z,80.00
2022-11-25T15:19:43.084Z,74.57
2022-11-25T15:24:53.236Z,77.73
2022-11-25T15:29:59.447Z,72.30
2022-11-25T15:35:04.782Z,61.67
2022-11-25T15:40:33.187Z,61.63
2022-11-25T15:45:47.612Z,63.20
2022-11-25T15:50:51.534Z,64.93
2022-11-25T15:56:00.485Z,51.57
2022-11-25T16:01:15.904Z,66.17
2022-11-25T16:06:25.566Z,61.40
2022-11-25T16:11:33.844Z,67.33
2022-11-25T16:16:37.296Z,69.50
2022-11-25T16:21:52.423Z,78.13
2022-11-25T16:27:21.036Z,68.73
2022-11-25T16:32:28.422Z,63.17
2022-11-25T16:37:31.703Z,73.77
2022-11-25T16:42:36.055Z,74.80
2022-11-25T16:47:39.911Z,76.03
2022-11-25T16:52:44.247Z,70.23
2022-11-25T16:57:48.388Z,76.47
2022-11-25T17:02:52.141Z,57.33
2022-11-25T17:07:57.516Z,66.50
2022-11-25T17:13:03.800Z,68.93
2022-11-25T17:18:09.544Z,75.83
2022-11-25T17:23:17.296Z,72.87
2022-11-25T17:28:22.893Z,72.47
2022-11-25T17:33:26.685Z,90.30
2022-11-25T17:38:30.587Z,82.57
2022-11-25T17:43:36.253Z,80.67
2022-11-25T17:48:45.738Z,80.13
2022-11-25T17:53:54.503Z,91.27
2022-11-25T17:59:12.200Z,80.37
2022-11-25T18:04:25.440Z,83.67
2022-11-25T18:09:31.199Z,93.53
2022-11-25T18:14:37.549Z,71.87
2022-11-25T18:19:41.577Z,81.67
2022-11-25T18:24:46.381Z,81.17
2022-11-25T18:29:51.371Z,76.90
2022-11-25T18:34:55.760Z,68.07
2022-11-25T18:40:00.030Z,62.27
2022-11-25T18:45:05.158Z,66.73
2022-11-25T18:50:24.907Z,68.07
2022-11-25T18:55:32.480Z,67.83
2022-11-25T19:00:39.985Z,58.67
2022-11-25T19:05:45.469Z,62.77
2022-11-25T19:10:51.738Z,57.40
2022-11-25T19:16:07.032Z,58.47
2022-11-25T19:21:17.169Z,57.37
2022-11-25T19:26:30.561Z,59.20
2022-11-25T19:31:36.702Z,51.97
2022-11-25T19:36:41.606Z,63.93
2022-11-25T19:41:48.358Z,56.90
2022-11-25T19:52:26.421Z,53.63
2022-11-25T19:57:31.299Z,65.70
2022-11-25T20:02:36.858Z,62.87
2022-11-25T20:07:47.572Z,55.23
2022-11-25T20:12:53.374Z,56.60
2022-11-25T20:18:01.400Z,68.77
2022-11-25T20:23:16.691Z,69.37
2022-11-25T20:28:26.560Z,63.67
2022-11-25T20:33:31.658Z,66.50
2022-11-25T20:38:37.638Z,52.30
2022-11-25T20:43:44.490Z,65.37
2022-11-25T20:48:59.093Z,78.30
2022-11-25T20:54:03.662Z,84.23
2022-11-25T20:59:23.759Z,80.93
2022-11-25T21:04:29.561Z,91.93
2022-11-25T21:09:36.158Z,97.33
2022-11-25T21:14:40.142Z,105.13
2022-11-25T21:19:45.137Z,130.33
2022-11-25T21:24:50.072Z,107.93
2022-11-25T21:29:56.108Z,105.03
2022-11-25T21:35:02.870Z,92.97
2022-11-25T21:40:17.510Z,89.70
2022-11-25T21:45:20.917Z,106.70
2022-11-25T21:50:24.433Z,106.93
2022-11-25T21:55:28.095Z,105.43
2022-11-25T22:00:31.468Z,112.47
2022-11-25T22:05:35.235Z,94.13
2022-11-25T22:10:40.888Z,87.77
2022-11-25T22:15:45.266Z,92.73
2022-11-25T22:20:53.256Z,91.70
2022-11-25T22:25:59.421Z,67.33
2022-11-25T22:31:07.968Z,75.50
2022-11-25T22:36:37.173Z,67.30
2022-11-25T22:41:43.083Z,69.53
2022-11-25T22:46:47.259Z,63.77
2022-11-25T22:51:50.448Z,70.20
2022-11-25T22:56:53.912Z,74.37
2022-11-25T23:01:57.170Z,66.40
2022-11-25T23:07:00.557Z,58.70
2022-11-25T23:12:04.313Z,62.90
2022-11-25T23:17:27.611Z,68.67
2022-11-25T23:22:31.089Z,72.10
2022-11-25T23:27:37.258Z,73.90
2022-11-25T23:32:40.388Z,66.07
2022-11-25T23:37:43.721Z,61.20
2022-11-25T23:42:47.576Z,67.20
2022-11-25T23:47:52.799Z,61.70
2022-11-25T23:53:01.900Z,65.87
2022-11-25T23:58:16.279Z,62.13
